sensor_id;sensor_type;location;lat;lon;timestamp;P1;durP1;ratioP1;P2;durP2;ratioP2
20894;SDS011;10607;42.066;24.742;2024-02-23T00:00:47;28.37;;;16.47;;
20894;SDS011;10607;42.066;24.742;2024-02-23T00:03:12;30.27;;;17.90;;
20894;SDS011;10607;42.066;24.742;2024-02-23T00:05:37;33.63;;;18.33;;
20894;SDS011;10607;42.066;24.742;2024-02-23T00:08:02;28.30;;;18.17;;
20894;SDS011;10607;42.066;24.742;2024-02-23T00:10:27;25.10;;;16.30;;
20894;SDS011;10607;42.066;24.742;2024-02-23T00:12:53;29.70;;;17.57;;
20894;SDS011;10607;42.066;24.742;2024-02-23T00:15:18;31.07;;;17.07;;
20894;SDS011;10607;42.066;24.742;2024-02-23T00:17:43;31.03;;;17.17;;
20894;SDS011;10607;42.066;24.742;2024-02-23T00:20:09;27.80;;;16.90;;
20894;SDS011;10607;42.066;24.742;2024-02-23T00:22:36;32.20;;;17.27;;
20894;SDS011;10607;42.066;24.742;2024-02-23T00:25:01;26.70;;;16.73;;
20894;SDS011;10607;42.066;24.742;2024-02-23T00:27:26;39.03;;;18.53;;
20894;SDS011;10607;42.066;24.742;2024-02-23T00:29:52;26.00;;;16.13;;
20894;SDS011;10607;42.066;24.742;2024-02-23T00:32:17;22.83;;;14.10;;
20894;SDS011;10607;42.066;24.742;2024-02-23T00:34:42;25.10;;;16.23;;
20894;SDS011;10607;42.066;24.742;2024-02-23T00:37:08;28.90;;;16.63;;
20894;SDS011;10607;42.066;24.742;2024-02-23T00:39:33;22.43;;;14.13;;
20894;SDS011;10607;42.066;24.742;2024-02-23T00:41:58;20.10;;;13.90;;
20894;SDS011;10607;42.066;24.742;2024-02-23T00:44:23;23.33;;;14.23;;
20894;SDS011;10607;42.066;24.742;2024-02-23T00:46:49;23.10;;;15.50;;
20894;SDS011;10607;42.066;24.742;2024-02-23T00:49:14;22.43;;;14.90;;
20894;SDS011;10607;42.066;24.742;2024-02-23T00:51:39;26.27;;;14.93;;
20894;SDS011;10607;42.066;24.742;2024-02-23T00:54:04;25.70;;;16.17;;
20894;SDS011;10607;42.066;24.742;2024-02-23T00:56:30;27.33;;;16.60;;
20894;SDS011;10607;42.066;24.742;2024-02-23T00:58:55;26.37;;;14.83;;
20894;SDS011;10607;42.066;24.742;2024-02-23T01:01:20;17.83;;;11.17;;
20894;SDS011;10607;42.066;24.742;2024-02-23T01:03:45;17.00;;;11.60;;
20894;SDS011;10607;42.066;24.742;2024-02-23T01:06:10;15.53;;;10.63;;
20894;SDS011;10607;42.066;24.742;2024-02-23T01:08:36;17.63;;;11.13;;
20894;SDS011;10607;42.066;24.742;2024-02-23T01:11:01;18.33;;;11.60;;
20894;SDS011;10607;42.066;24.742;2024-02-23T01:13:26;15.57;;;10.57;;
20894;SDS011;10607;42.066;24.742;2024-02-23T01:15:51;16.40;;;11.07;;
20894;SDS011;10607;42.066;24.742;2024-02-23T01:18:18;18.73;;;11.53;;
20894;SDS011;10607;42.066;24.742;2024-02-23T01:20:44;20.47;;;13.17;;
20894;SDS011;10607;42.066;24.742;2024-02-23T01:23:09;18.60;;;12.87;;
20894;SDS011;10607;42.066;24.742;2024-02-23T01:25:34;16.70;;;12.17;;
20894;SDS011;10607;42.066;24.742;2024-02-23T01:28:00;15.07;;;10.63;;
20894;SDS011;10607;42.066;24.742;2024-02-23T01:30:25;20.67;;;11.87;;
20894;SDS011;10607;42.066;24.742;2024-02-23T01:32:50;19.20;;;11.57;;
20894;SDS011;10607;42.066;24.742;2024-02-23T01:35:15;23.00;;;12.33;;
20894;SDS011;10607;42.066;24.742;2024-02-23T01:37:41;21.07;;;11.70;;
20894;SDS011;10607;42.066;24.742;2024-02-23T01:40:06;19.67;;;12.23;;
20894;SDS011;10607;42.066;24.742;2024-02-23T01:42:32;22.53;;;12.63;;
20894;SDS011;10607;42.066;24.742;2024-02-23T01:44:57;19.10;;;11.73;;
20894;SDS011;10607;42.066;24.742;2024-02-23T01:47:23;20.17;;;13.53;;
20894;SDS011;10607;42.066;24.742;2024-02-23T01:49:48;23.63;;;12.40;;
20894;SDS011;10607;42.066;24.742;2024-02-23T01:52:14;21.77;;;12.97;;
20894;SDS011;10607;42.066;24.742;2024-02-23T01:54:40;22.87;;;13.40;;
20894;SDS011;10607;42.066;24.742;2024-02-23T01:57:05;31.57;;;16.83;;
20894;SDS011;10607;42.066;24.742;2024-02-23T01:59:31;22.20;;;14.27;;
20894;SDS011;10607;42.066;24.742;2024-02-23T02:01:57;23.00;;;13.43;;
20894;SDS011;10607;42.066;24.742;2024-02-23T02:04:22;17.23;;;11.77;;
20894;SDS011;10607;42.066;24.742;2024-02-23T02:06:47;15.13;;;10.30;;
20894;SDS011;10607;42.066;24.742;2024-02-23T02:09:13;14.40;;;10.37;;
20894;SDS011;10607;42.066;24.742;2024-02-23T02:11:47;18.40;;;11.30;;
20894;SDS011;10607;42.066;24.742;2024-02-23T02:14:13;15.17;;;10.33;;
20894;SDS011;10607;42.066;24.742;2024-02-23T02:16:39;15.63;;;10.03;;
20894;SDS011;10607;42.066;24.742;2024-02-23T02:19:04;16.63;;;11.00;;
20894;SDS011;10607;42.066;24.742;2024-02-23T02:21:30;16.47;;;10.97;;
20894;SDS011;10607;42.066;24.742;2024-02-23T02:23:55;19.63;;;10.87;;
20894;SDS011;10607;42.066;24.742;2024-02-23T02:26:21;15.60;;;10.77;;
20894;SDS011;10607;42.066;24.742;2024-02-23T02:28:46;16.53;;;11.30;;
20894;SDS011;10607;42.066;24.742;2024-02-23T02:31:12;17.90;;;11.83;;
20894;SDS011;10607;42.066;24.742;2024-02-23T02:33:37;17.63;;;12.00;;
20894;SDS011;10607;42.066;24.742;2024-02-23T02:36:02;21.20;;;12.23;;
20894;SDS011;10607;42.066;24.742;2024-02-23T02:38:28;21.50;;;13.23;;
20894;SDS011;10607;42.066;24.742;2024-02-23T02:40:53;21.30;;;13.30;;
20894;SDS011;10607;42.066;24.742;2024-02-23T02:43:18;19.57;;;12.57;;
20894;SDS011;10607;42.066;24.742;2024-02-23T02:45:43;19.03;;;12.07;;
20894;SDS011;10607;42.066;24.742;2024-02-23T02:48:09;50.10;;;26.27;;
20894;SDS011;10607;42.066;24.742;2024-02-23T02:50:34;19.87;;;13.10;;
20894;SDS011;10607;42.066;24.742;2024-02-23T02:52:59;23.83;;;15.13;;
20894;SDS011;10607;42.066;24.742;2024-02-23T02:55:24;24.07;;;12.30;;
20894;SDS011;10607;42.066;24.742;2024-02-23T02:57:50;17.43;;;11.13;;
20894;SDS011;10607;42.066;24.742;2024-02-23T03:00:15;19.00;;;10.53;;
20894;SDS011;10607;42.066;24.742;2024-02-23T03:02:40;14.00;;;9.87;;
20894;SDS011;10607;42.066;24.742;2024-02-23T03:05:05;14.77;;;10.83;;
20894;SDS011;10607;42.066;24.742;2024-02-23T03:07:31;22.53;;;13.87;;
20894;SDS011;10607;42.066;24.742;2024-02-23T03:09:56;23.63;;;15.63;;
20894;SDS011;10607;42.066;24.742;2024-02-23T03:12:22;28.43;;;15.63;;
20894;SDS011;10607;42.066;24.742;2024-02-23T03:14:47;22.73;;;15.27;;
20894;SDS011;10607;42.066;24.742;2024-02-23T03:17:12;29.83;;;17.43;;
20894;SDS011;10607;42.066;24.742;2024-02-23T03:19:37;29.50;;;17.47;;
20894;SDS011;10607;42.066;24.742;2024-02-23T03:22:03;26.37;;;16.23;;
20894;SDS011;10607;42.066;24.742;2024-02-23T03:24:28;31.57;;;18.03;;
20894;SDS011;10607;42.066;24.742;2024-02-23T03:26:54;28.27;;;17.90;;
20894;SDS011;10607;42.066;24.742;2024-02-23T03:29:20;28.80;;;17.97;;
20894;SDS011;10607;42.066;24.742;2024-02-23T03:31:45;28.47;;;16.93;;
20894;SDS011;10607;42.066;24.742;2024-02-23T03:34:10;28.37;;;17.43;;
20894;SDS011;10607;42.066;24.742;2024-02-23T03:36:38;29.03;;;17.47;;
20894;SDS011;10607;42.066;24.742;2024-02-23T03:39:03;27.47;;;17.90;;
20894;SDS011;10607;42.066;24.742;2024-02-23T03:41:28;25.97;;;16.10;;
20894;SDS011;10607;42.066;24.742;2024-02-23T03:43:53;24.60;;;15.37;;
20894;SDS011;10607;42.066;24.742;2024-02-23T03:46:19;25.63;;;15.67;;
20894;SDS011;10607;42.066;24.742;2024-02-23T03:48:45;26.70;;;16.13;;
20894;SDS011;10607;42.066;24.742;2024-02-23T03:51:10;22.87;;;14.93;;
20894;SDS011;10607;42.066;24.742;2024-02-23T03:53:35;25.33;;;15.57;;
20894;SDS011;10607;42.066;24.742;2024-02-23T03:56:00;27.63;;;16.33;;
20894;SDS011;10607;42.066;24.742;2024-02-23T03:58:26;26.63;;;15.67;;
20894;SDS011;10607;42.066;24.742;2024-02-23T04:00:51;24.10;;;17.10;;
20894;SDS011;10607;42.066;24.742;2024-02-23T04:03:16;23.97;;;16.30;;
20894;SDS011;10607;42.066;24.742;2024-02-23T04:05:42;25.13;;;17.20;;
20894;SDS011;10607;42.066;24.742;2024-02-23T04:08:07;25.77;;;16.70;;
20894;SDS011;10607;42.066;24.742;2024-02-23T04:10:32;26.93;;;17.30;;
20894;SDS011;10607;42.066;24.742;2024-02-23T04:12:58;25.40;;;16.17;;
20894;SDS011;10607;42.066;24.742;2024-02-23T04:15:23;28.37;;;16.33;;
20894;SDS011;10607;42.066;24.742;2024-02-23T04:17:48;27.50;;;17.03;;
20894;SDS011;10607;42.066;24.742;2024-02-23T04:20:14;27.40;;;17.27;;
20894;SDS011;10607;42.066;24.742;2024-02-23T04:22:39;26.20;;;16.30;;
20894;SDS011;10607;42.066;24.742;2024-02-23T04:25:04;26.83;;;16.53;;
20894;SDS011;10607;42.066;24.742;2024-02-23T04:27:30;30.97;;;17.40;;
20894;SDS011;10607;42.066;24.742;2024-02-23T04:29:55;26.73;;;17.00;;
20894;SDS011;10607;42.066;24.742;2024-02-23T04:32:20;28.60;;;18.20;;
20894;SDS011;10607;42.066;24.742;2024-02-23T04:34:45;30.00;;;18.73;;
20894;SDS011;10607;42.066;24.742;2024-02-23T04:37:11;25.70;;;16.20;;
20894;SDS011;10607;42.066;24.742;2024-02-23T04:39:36;21.77;;;14.80;;
20894;SDS011;10607;42.066;24.742;2024-02-23T04:42:03;25.33;;;15.87;;
20894;SDS011;10607;42.066;24.742;2024-02-23T04:44:28;23.37;;;15.23;;
20894;SDS011;10607;42.066;24.742;2024-02-23T04:46:53;21.13;;;13.03;;
20894;SDS011;10607;42.066;24.742;2024-02-23T04:49:18;19.40;;;14.20;;
20894;SDS011;10607;42.066;24.742;2024-02-23T04:51:44;19.90;;;12.43;;
20894;SDS011;10607;42.066;24.742;2024-02-23T04:54:09;23.37;;;15.23;;
20894;SDS011;10607;42.066;24.742;2024-02-23T04:56:34;20.60;;;12.00;;
20894;SDS011;10607;42.066;24.742;2024-02-23T04:58:59;26.77;;;13.03;;
20894;SDS011;10607;42.066;24.742;2024-02-23T05:01:25;27.80;;;14.07;;
20894;SDS011;10607;42.066;24.742;2024-02-23T05:03:50;24.47;;;14.80;;
20894;SDS011;10607;42.066;24.742;2024-02-23T05:06:15;26.87;;;14.70;;
20894;SDS011;10607;42.066;24.742;2024-02-23T05:08:40;23.97;;;15.30;;
20894;SDS011;10607;42.066;24.742;2024-02-23T05:11:06;22.70;;;15.53;;
20894;SDS011;10607;42.066;24.742;2024-02-23T05:13:31;22.97;;;15.87;;
20894;SDS011;10607;42.066;24.742;2024-02-23T05:15:56;27.13;;;15.53;;
20894;SDS011;10607;42.066;24.742;2024-02-23T05:18:22;26.37;;;15.10;;
20894;SDS011;10607;42.066;24.742;2024-02-23T05:20:47;20.90;;;15.10;;
20894;SDS011;10607;42.066;24.742;2024-02-23T05:23:12;22.67;;;13.53;;
20894;SDS011;10607;42.066;24.742;2024-02-23T05:25:40;20.37;;;13.87;;
20894;SDS011;10607;42.066;24.742;2024-02-23T05:28:05;28.07;;;13.47;;
20894;SDS011;10607;42.066;24.742;2024-02-23T05:30:31;32.17;;;15.63;;
20894;SDS011;10607;42.066;24.742;2024-02-23T05:32:56;24.47;;;14.27;;
20894;SDS011;10607;42.066;24.742;2024-02-23T05:35:22;26.00;;;14.63;;
20894;SDS011;10607;42.066;24.742;2024-02-23T05:37:47;20.57;;;13.80;;
20894;SDS011;10607;42.066;24.742;2024-02-23T05:40:12;23.20;;;13.97;;
20894;SDS011;10607;42.066;24.742;2024-02-23T05:42:38;23.43;;;13.47;;
20894;SDS011;10607;42.066;24.742;2024-02-23T05:45:03;24.40;;;14.27;;
20894;SDS011;10607;42.066;24.742;2024-02-23T05:47:29;33.60;;;15.17;;
20894;SDS011;10607;42.066;24.742;2024-02-23T05:49:55;26.67;;;14.60;;
20894;SDS011;10607;42.066;24.742;2024-02-23T05:52:20;26.93;;;16.37;;
20894;SDS011;10607;42.066;24.742;2024-02-23T05:54:45;27.43;;;14.93;;
20894;SDS011;10607;42.066;24.742;2024-02-23T05:57:10;38.53;;;16.67;;
20894;SDS011;10607;42.066;24.742;2024-02-23T05:59:36;32.10;;;16.63;;
20894;SDS011;10607;42.066;24.742;2024-02-23T06:02:01;31.30;;;16.00;;
20894;SDS011;10607;42.066;24.742;2024-02-23T06:04:26;25.53;;;16.20;;
20894;SDS011;10607;42.066;24.742;2024-02-23T06:06:52;26.73;;;15.53;;
20894;SDS011;10607;42.066;24.742;2024-02-23T06:09:17;32.10;;;15.33;;
20894;SDS011;10607;42.066;24.742;2024-02-23T06:11:43;21.57;;;14.63;;
20894;SDS011;10607;42.066;24.742;2024-02-23T06:14:09;28.67;;;14.50;;
20894;SDS011;10607;42.066;24.742;2024-02-23T06:16:34;22.50;;;13.47;;
20894;SDS011;10607;42.066;24.742;2024-02-23T06:18:59;23.70;;;13.80;;
20894;SDS011;10607;42.066;24.742;2024-02-23T06:21:25;21.43;;;13.73;;
20894;SDS011;10607;42.066;24.742;2024-02-23T06:23:51;26.77;;;14.37;;
20894;SDS011;10607;42.066;24.742;2024-02-23T06:26:16;27.50;;;15.33;;
20894;SDS011;10607;42.066;24.742;2024-02-23T06:28:41;28.03;;;16.17;;
20894;SDS011;10607;42.066;24.742;2024-02-23T06:31:07;28.93;;;15.83;;
20894;SDS011;10607;42.066;24.742;2024-02-23T06:33:32;24.27;;;15.37;;
20894;SDS011;10607;42.066;24.742;2024-02-23T06:35:57;27.43;;;15.43;;
20894;SDS011;10607;42.066;24.742;2024-02-23T06:38:23;32.53;;;14.93;;
20894;SDS011;10607;42.066;24.742;2024-02-23T06:40:48;38.77;;;16.83;;
20894;SDS011;10607;42.066;24.742;2024-02-23T06:43:13;32.30;;;16.97;;
20894;SDS011;10607;42.066;24.742;2024-02-23T06:45:38;25.27;;;15.93;;
20894;SDS011;10607;42.066;24.742;2024-02-23T06:48:03;34.17;;;15.60;;
20894;SDS011;10607;42.066;24.742;2024-02-23T06:50:29;44.73;;;17.03;;
20894;SDS011;10607;42.066;24.742;2024-02-23T06:52:54;30.53;;;15.03;;
20894;SDS011;10607;42.066;24.742;2024-02-23T06:55:20;25.37;;;15.20;;
20894;SDS011;10607;42.066;24.742;2024-02-23T06:57:46;24.17;;;15.43;;
20894;SDS011;10607;42.066;24.742;2024-02-23T07:00:12;26.75;;;15.68;;
20894;SDS011;10607;42.066;24.742;2024-02-23T07:02:37;26.60;;;14.33;;
20894;SDS011;10607;42.066;24.742;2024-02-23T07:05:02;27.08;;;15.07;;
20894;SDS011;10607;42.066;24.742;2024-02-23T07:07:31;27.45;;;16.90;;
20894;SDS011;10607;42.066;24.742;2024-02-23T07:09:58;26.02;;;16.55;;
20894;SDS011;10607;42.066;24.742;2024-02-23T07:12:23;29.70;;;17.23;;
20894;SDS011;10607;42.066;24.742;2024-02-23T07:14:49;25.77;;;15.45;;
20894;SDS011;10607;42.066;24.742;2024-02-23T07:17:17;25.52;;;15.75;;
20894;SDS011;10607;42.066;24.742;2024-02-23T07:19:42;24.67;;;13.75;;
20894;SDS011;10607;42.066;24.742;2024-02-23T07:22:08;18.42;;;13.02;;
20894;SDS011;10607;42.066;24.742;2024-02-23T07:24:33;23.40;;;12.80;;
20894;SDS011;10607;42.066;24.742;2024-02-23T07:26:58;19.48;;;12.57;;
20894;SDS011;10607;42.066;24.742;2024-02-23T07:29:23;21.17;;;12.77;;
20894;SDS011;10607;42.066;24.742;2024-02-23T07:31:49;20.48;;;11.50;;
20894;SDS011;10607;42.066;24.742;2024-02-23T07:34:14;15.43;;;11.02;;
20894;SDS011;10607;42.066;24.742;2024-02-23T07:36:39;15.85;;;11.88;;
20894;SDS011;10607;42.066;24.742;2024-02-23T07:39:04;17.40;;;11.68;;
20894;SDS011;10607;42.066;24.742;2024-02-23T07:41:30;18.33;;;11.38;;
20894;SDS011;10607;42.066;24.742;2024-02-23T07:43:55;19.70;;;12.02;;
20894;SDS011;10607;42.066;24.742;2024-02-23T07:46:20;17.90;;;12.32;;
20894;SDS011;10607;42.066;24.742;2024-02-23T07:48:47;19.42;;;12.77;;
20894;SDS011;10607;42.066;24.742;2024-02-23T07:51:13;22.27;;;13.23;;
20894;SDS011;10607;42.066;24.742;2024-02-23T07:53:38;21.85;;;13.27;;
20894;SDS011;10607;42.066;24.742;2024-02-23T07:56:03;20.65;;;13.18;;
20894;SDS011;10607;42.066;24.742;2024-02-23T07:58:29;19.65;;;12.52;;
20894;SDS011;10607;42.066;24.742;2024-02-23T08:00:55;17.58;;;12.30;;
20894;SDS011;10607;42.066;24.742;2024-02-23T08:03:20;19.00;;;13.05;;
20894;SDS011;10607;42.066;24.742;2024-02-23T08:05:45;27.85;;;13.15;;
20894;SDS011;10607;42.066;24.742;2024-02-23T08:08:10;19.75;;;13.15;;
20894;SDS011;10607;42.066;24.742;2024-02-23T08:10:35;29.40;;;13.90;;
20894;SDS011;10607;42.066;24.742;2024-02-23T08:13:01;18.10;;;13.52;;
20894;SDS011;10607;42.066;24.742;2024-02-23T08:15:26;18.27;;;12.57;;
20894;SDS011;10607;42.066;24.742;2024-02-23T08:17:51;22.83;;;13.38;;
20894;SDS011;10607;42.066;24.742;2024-02-23T08:20:16;20.55;;;12.43;;
20894;SDS011;10607;42.066;24.742;2024-02-23T08:22:42;20.58;;;12.40;;
20894;SDS011;10607;42.066;24.742;2024-02-23T08:25:07;18.02;;;12.35;;
20894;SDS011;10607;42.066;24.742;2024-02-23T08:27:33;18.08;;;11.95;;
20894;SDS011;10607;42.066;24.742;2024-02-23T08:29:59;18.08;;;11.75;;
20894;SDS011;10607;42.066;24.742;2024-02-23T08:32:24;19.25;;;13.07;;
20894;SDS011;10607;42.066;24.742;2024-02-23T08:34:49;17.95;;;12.45;;
20894;SDS011;10607;42.066;24.742;2024-02-23T08:37:15;20.65;;;12.27;;
20894;SDS011;10607;42.066;24.742;2024-02-23T08:39:41;20.63;;;12.45;;
20894;SDS011;10607;42.066;24.742;2024-02-23T08:42:06;17.25;;;12.02;;
20894;SDS011;10607;42.066;24.742;2024-02-23T08:44:31;29.13;;;13.20;;
20894;SDS011;10607;42.066;24.742;2024-02-23T08:46:56;19.08;;;12.50;;
20894;SDS011;10607;42.066;24.742;2024-02-23T08:49:22;16.25;;;11.80;;
20894;SDS011;10607;42.066;24.742;2024-02-23T08:51:47;18.83;;;11.85;;
20894;SDS011;10607;42.066;24.742;2024-02-23T08:54:12;19.38;;;11.40;;
20894;SDS011;10607;42.066;24.742;2024-02-23T08:56:38;17.17;;;11.70;;
20894;SDS011;10607;42.066;24.742;2024-02-23T08:59:07;18.40;;;12.75;;
20894;SDS011;10607;42.066;24.742;2024-02-23T09:01:34;19.45;;;12.27;;
20894;SDS011;10607;42.066;24.742;2024-02-23T09:03:59;24.42;;;12.20;;
20894;SDS011;10607;42.066;24.742;2024-02-23T09:06:24;24.90;;;12.38;;
20894;SDS011;10607;42.066;24.742;2024-02-23T09:08:49;17.05;;;11.40;;
20894;SDS011;10607;42.066;24.742;2024-02-23T09:11:14;22.02;;;12.52;;
20894;SDS011;10607;42.066;24.742;2024-02-23T09:13:40;15.60;;;11.23;;
20894;SDS011;10607;42.066;24.742;2024-02-23T09:16:07;16.20;;;11.43;;
20894;SDS011;10607;42.066;24.742;2024-02-23T09:18:33;16.77;;;12.27;;
20894;SDS011;10607;42.066;24.742;2024-02-23T09:20:59;21.17;;;12.30;;
20894;SDS011;10607;42.066;24.742;2024-02-23T09:23:24;16.60;;;11.95;;
20894;SDS011;10607;42.066;24.742;2024-02-23T09:25:49;16.92;;;11.52;;
20894;SDS011;10607;42.066;24.742;2024-02-23T09:28:15;19.48;;;13.43;;
20894;SDS011;10607;42.066;24.742;2024-02-23T09:30:40;20.52;;;12.75;;
20894;SDS011;10607;42.066;24.742;2024-02-23T09:33:05;25.00;;;14.35;;
20894;SDS011;10607;42.066;24.742;2024-02-23T09:35:30;21.88;;;13.75;;
20894;SDS011;10607;42.066;24.742;2024-02-23T09:37:55;19.90;;;13.00;;
20894;SDS011;10607;42.066;24.742;2024-02-23T09:40:21;16.80;;;11.98;;
20894;SDS011;10607;42.066;24.742;2024-02-23T09:42:51;18.73;;;12.55;;
20894;SDS011;10607;42.066;24.742;2024-02-23T09:45:20;18.95;;;12.90;;
20894;SDS011;10607;42.066;24.742;2024-02-23T09:47:46;17.85;;;12.30;;
20894;SDS011;10607;42.066;24.742;2024-02-23T09:50:12;16.92;;;11.90;;
20894;SDS011;10607;42.066;24.742;2024-02-23T09:52:38;16.58;;;11.27;;
20894;SDS011;10607;42.066;24.742;2024-02-23T09:55:03;17.27;;;11.30;;
20894;SDS011;10607;42.066;24.742;2024-02-23T09:57:28;15.48;;;12.05;;
20894;SDS011;10607;42.066;24.742;2024-02-23T09:59:54;21.05;;;11.48;;
20894;SDS011;10607;42.066;24.742;2024-02-23T10:02:19;21.70;;;12.57;;
20894;SDS011;10607;42.066;24.742;2024-02-23T10:04:45;20.45;;;11.23;;
20894;SDS011;10607;42.066;24.742;2024-02-23T10:07:16;24.23;;;12.85;;
20894;SDS011;10607;42.066;24.742;2024-02-23T10:09:41;19.35;;;12.45;;
20894;SDS011;10607;42.066;24.742;2024-02-23T10:12:07;26.80;;;14.60;;
20894;SDS011;10607;42.066;24.742;2024-02-23T10:14:32;21.65;;;13.55;;
20894;SDS011;10607;42.066;24.742;2024-02-23T10:16:57;22.15;;;13.45;;
20894;SDS011;10607;42.066;24.742;2024-02-23T10:19:23;19.77;;;12.55;;
20894;SDS011;10607;42.066;24.742;2024-02-23T10:21:53;22.65;;;13.95;;
20894;SDS011;10607;42.066;24.742;2024-02-23T10:24:19;18.17;;;11.57;;
20894;SDS011;10607;42.066;24.742;2024-02-23T10:26:44;17.48;;;11.27;;
20894;SDS011;10607;42.066;24.742;2024-02-23T10:29:09;21.73;;;11.95;;
20894;SDS011;10607;42.066;24.742;2024-02-23T10:31:35;15.82;;;11.07;;
20894;SDS011;10607;42.066;24.742;2024-02-23T10:34:07;16.85;;;11.02;;
20894;SDS011;10607;42.066;24.742;2024-02-23T10:36:34;17.52;;;10.55;;
20894;SDS011;10607;42.066;24.742;2024-02-23T10:39:01;16.63;;;11.18;;
20894;SDS011;10607;42.066;24.742;2024-02-23T10:41:28;16.25;;;11.23;;
20894;SDS011;10607;42.066;24.742;2024-02-23T10:43:56;20.63;;;11.45;;
20894;SDS011;10607;42.066;24.742;2024-02-23T10:46:24;13.95;;;10.95;;
20894;SDS011;10607;42.066;24.742;2024-02-23T10:48:50;19.27;;;11.52;;
20894;SDS011;10607;42.066;24.742;2024-02-23T10:51:15;14.23;;;10.15;;
20894;SDS011;10607;42.066;24.742;2024-02-23T10:53:41;16.70;;;11.23;;
20894;SDS011;10607;42.066;24.742;2024-02-23T10:56:07;16.58;;;10.20;;
20894;SDS011;10607;42.066;24.742;2024-02-23T10:58:33;16.63;;;11.15;;
20894;SDS011;10607;42.066;24.742;2024-02-23T11:00:59;15.48;;;10.07;;
20894;SDS011;10607;42.066;24.742;2024-02-23T11:03:25;17.40;;;10.77;;
20894;SDS011;10607;42.066;24.742;2024-02-23T11:05:53;15.23;;;10.73;;
20894;SDS011;10607;42.066;24.742;2024-02-23T11:08:19;16.77;;;10.52;;
20894;SDS011;10607;42.066;24.742;2024-02-23T11:10:51;15.02;;;10.27;;
20894;SDS011;10607;42.066;24.742;2024-02-23T11:13:29;19.30;;;10.07;;
20894;SDS011;10607;42.066;24.742;2024-02-23T11:16:00;17.08;;;9.10;;
20894;SDS011;10607;42.066;24.742;2024-02-23T11:18:29;12.00;;;9.40;;
20894;SDS011;10607;42.066;24.742;2024-02-23T11:20:55;15.90;;;8.52;;
20894;SDS011;10607;42.066;24.742;2024-02-23T11:23:21;10.65;;;8.50;;
20894;SDS011;10607;42.066;24.742;2024-02-23T11:28:47;12.00;;;9.05;;
20894;SDS011;10607;42.066;24.742;2024-02-23T11:31:13;13.95;;;9.30;;
20894;SDS011;10607;42.066;24.742;2024-02-23T11:33:38;12.15;;;9.50;;
20894;SDS011;10607;42.066;24.742;2024-02-23T11:36:07;16.85;;;11.30;;
20894;SDS011;10607;42.066;24.742;2024-02-23T11:38:33;16.63;;;11.18;;
20894;SDS011;10607;42.066;24.742;2024-02-23T11:41:01;12.50;;;8.95;;
20894;SDS011;10607;42.066;24.742;2024-02-23T11:43:27;15.25;;;10.20;;
20894;SDS011;10607;42.066;24.742;2024-02-23T11:45:52;14.63;;;10.20;;
20894;SDS011;10607;42.066;24.742;2024-02-23T11:48:18;13.38;;;9.98;;
20894;SDS011;10607;42.066;24.742;2024-02-23T11:50:43;13.75;;;10.27;;
20894;SDS011;10607;42.066;24.742;2024-02-23T11:53:08;18.35;;;10.93;;
20894;SDS011;10607;42.066;24.742;2024-02-23T11:55:33;13.45;;;9.82;;
20894;SDS011;10607;42.066;24.742;2024-02-23T11:57:59;15.88;;;10.02;;
20894;SDS011;10607;42.066;24.742;2024-02-23T12:00:24;16.73;;;11.88;;
20894;SDS011;10607;42.066;24.742;2024-02-23T12:02:49;23.00;;;13.18;;
20894;SDS011;10607;42.066;24.742;2024-02-23T12:05:15;18.60;;;12.88;;
20894;SDS011;10607;42.066;24.742;2024-02-23T12:07:41;18.67;;;13.05;;
20894;SDS011;10607;42.066;24.742;2024-02-23T12:10:06;15.52;;;11.35;;
20894;SDS011;10607;42.066;24.742;2024-02-23T12:12:32;17.85;;;10.85;;
20894;SDS011;10607;42.066;24.742;2024-02-23T12:14:57;19.40;;;10.35;;
20894;SDS011;10607;42.066;24.742;2024-02-23T12:17:24;16.33;;;10.65;;
20894;SDS011;10607;42.066;24.742;2024-02-23T12:19:49;19.50;;;10.18;;
20894;SDS011;10607;42.066;24.742;2024-02-23T12:22:14;16.48;;;10.57;;
20894;SDS011;10607;42.066;24.742;2024-02-23T12:24:40;22.27;;;10.65;;
20894;SDS011;10607;42.066;24.742;2024-02-23T12:27:06;14.52;;;10.48;;
20894;SDS011;10607;42.066;24.742;2024-02-23T12:29:31;16.10;;;11.25;;
20894;SDS011;10607;42.066;24.742;2024-02-23T12:32:06;19.55;;;12.23;;
20894;SDS011;10607;42.066;24.742;2024-02-23T12:34:31;15.57;;;10.10;;
20894;SDS011;10607;42.066;24.742;2024-02-23T12:36:57;18.63;;;10.68;;
20894;SDS011;10607;42.066;24.742;2024-02-23T12:39:22;15.80;;;10.50;;
20894;SDS011;10607;42.066;24.742;2024-02-23T12:41:47;17.02;;;10.27;;
20894;SDS011;10607;42.066;24.742;2024-02-23T12:44:12;17.13;;;10.05;;
20894;SDS011;10607;42.066;24.742;2024-02-23T12:46:38;16.80;;;11.27;;
20894;SDS011;10607;42.066;24.742;2024-02-23T12:49:03;13.77;;;10.75;;
20894;SDS011;10607;42.066;24.742;2024-02-23T12:51:28;15.45;;;10.25;;
20894;SDS011;10607;42.066;24.742;2024-02-23T12:53:53;16.33;;;9.13;;
20894;SDS011;10607;42.066;24.742;2024-02-23T12:56:19;12.23;;;8.85;;
20894;SDS011;10607;42.066;24.742;2024-02-23T12:58:45;12.95;;;8.23;;
20894;SDS011;10607;42.066;24.742;2024-02-23T13:01:11;13.23;;;8.18;;
20894;SDS011;10607;42.066;24.742;2024-02-23T13:03:37;11.45;;;7.57;;
20894;SDS011;10607;42.066;24.742;2024-02-23T13:06:03;10.35;;;7.05;;
20894;SDS011;10607;42.066;24.742;2024-02-23T13:08:28;14.90;;;7.85;;
20894;SDS011;10607;42.066;24.742;2024-02-23T13:10:54;12.38;;;8.90;;
20894;SDS011;10607;42.066;24.742;2024-02-23T13:13:20;15.25;;;9.77;;
20894;SDS011;10607;42.066;24.742;2024-02-23T13:15:46;12.63;;;9.05;;
20894;SDS011;10607;42.066;24.742;2024-02-23T13:18:11;16.42;;;9.82;;
20894;SDS011;10607;42.066;24.742;2024-02-23T13:20:37;16.10;;;9.70;;
20894;SDS011;10607;42.066;24.742;2024-02-23T13:23:03;13.40;;;9.10;;
20894;SDS011;10607;42.066;24.742;2024-02-23T13:25:28;13.07;;;8.65;;
20894;SDS011;10607;42.066;24.742;2024-02-23T13:27:54;23.42;;;9.45;;
20894;SDS011;10607;42.066;24.742;2024-02-23T13:30:19;16.50;;;9.50;;
20894;SDS011;10607;42.066;24.742;2024-02-23T13:32:44;12.43;;;8.43;;
20894;SDS011;10607;42.066;24.742;2024-02-23T13:35:10;10.52;;;8.40;;
20894;SDS011;10607;42.066;24.742;2024-02-23T13:37:35;17.02;;;8.50;;
20894;SDS011;10607;42.066;24.742;2024-02-23T13:40:00;15.48;;;8.18;;
20894;SDS011;10607;42.066;24.742;2024-02-23T13:42:26;14.05;;;8.52;;
20894;SDS011;10607;42.066;24.742;2024-02-23T13:44:51;12.02;;;8.45;;
20894;SDS011;10607;42.066;24.742;2024-02-23T13:47:16;12.98;;;8.15;;
20894;SDS011;10607;42.066;24.742;2024-02-23T13:49:42;16.85;;;9.80;;
20894;SDS011;10607;42.066;24.742;2024-02-23T13:52:07;15.73;;;9.10;;
20894;SDS011;10607;42.066;24.742;2024-02-23T13:54:32;13.35;;;8.65;;
20894;SDS011;10607;42.066;24.742;2024-02-23T13:56:57;14.23;;;9.30;;
20894;SDS011;10607;42.066;24.742;2024-02-23T13:59:23;16.60;;;9.23;;
20894;SDS011;10607;42.066;24.742;2024-02-23T14:01:48;13.40;;;9.30;;
20894;SDS011;10607;42.066;24.742;2024-02-23T14:04:13;17.42;;;10.13;;